sensor_id;sensor_type;location;lat;lon;timestamp;P1;durP1;ratioP1;P2;durP2;ratioP2
42104;SDS011;61464;51.472;5.712;2023-02-15T00:01:57;68.82;;;32.65;;
42104;SDS011;61464;51.472;5.712;2023-02-15T00:04:24;68.05;;;30.00;;
42104;SDS011;61464;51.472;5.712;2023-02-15T00:07:11;71.38;;;29.85;;
42104;SDS011;61464;51.472;5.712;2023-02-15T00:09:39;68.00;;;30.05;;
42104;SDS011;61464;51.472;5.712;2023-02-15T00:12:05;70.50;;;28.88;;
42104;SDS011;61464;51.472;5.712;2023-02-15T00:14:31;68.25;;;29.67;;
42104;SDS011;61464;51.472;5.712;2023-02-15T00:16:57;73.15;;;30.20;;
42104;SDS011;61464;51.472;5.712;2023-02-15T00:19:24;73.85;;;30.77;;
42104;SDS011;61464;51.472;5.712;2023-02-15T00:21:50;69.18;;;29.35;;
42104;SDS011;61464;51.472;5.712;2023-02-15T00:24:17;69.63;;;30.27;;
42104;SDS011;61464;51.472;5.712;2023-02-15T00:26:45;78.13;;;31.42;;
42104;SDS011;61464;51.472;5.712;2023-02-15T00:29:12;74.13;;;30.15;;
42104;SDS011;61464;51.472;5.712;2023-02-15T00:31:40;69.65;;;28.63;;
42104;SDS011;61464;51.472;5.712;2023-02-15T00:34:11;75.85;;;31.15;;
42104;SDS011;61464;51.472;5.712;2023-02-15T00:36:45;74.50;;;30.95;;
42104;SDS011;61464;51.472;5.712;2023-02-15T00:39:11;69.82;;;29.77;;
42104;SDS011;61464;51.472;5.712;2023-02-15T00:41:38;91.18;;;32.75;;
42104;SDS011;61464;51.472;5.712;2023-02-15T00:44:04;86.45;;;34.30;;
42104;SDS011;61464;51.472;5.712;2023-02-15T00:46:31;77.55;;;33.22;;
42104;SDS011;61464;51.472;5.712;2023-02-15T00:48:57;74.40;;;30.85;;
42104;SDS011;61464;51.472;5.712;2023-02-15T00:51:23;75.97;;;31.17;;
42104;SDS011;61464;51.472;5.712;2023-02-15T00:53:49;76.07;;;29.67;;
42104;SDS011;61464;51.472;5.712;2023-02-15T00:56:15;69.72;;;29.92;;
42104;SDS011;61464;51.472;5.712;2023-02-15T00:58:41;74.20;;;29.40;;
42104;SDS011;61464;51.472;5.712;2023-02-15T01:01:08;64.22;;;27.42;;
42104;SDS011;61464;51.472;5.712;2023-02-15T01:03:38;62.25;;;28.52;;
42104;SDS011;61464;51.472;5.712;2023-02-15T01:06:06;70.95;;;29.95;;
42104;SDS011;61464;51.472;5.712;2023-02-15T01:08:32;68.10;;;28.50;;
42104;SDS011;61464;51.472;5.712;2023-02-15T01:11:02;63.05;;;28.52;;
42104;SDS011;61464;51.472;5.712;2023-02-15T01:13:31;64.63;;;27.00;;
42104;SDS011;61464;51.472;5.712;2023-02-15T01:15:58;65.88;;;27.67;;
42104;SDS011;61464;51.472;5.712;2023-02-15T01:18:23;67.55;;;28.13;;
42104;SDS011;61464;51.472;5.712;2023-02-15T01:20:49;69.50;;;27.98;;
42104;SDS011;61464;51.472;5.712;2023-02-15T01:23:15;68.32;;;29.67;;
42104;SDS011;61464;51.472;5.712;2023-02-15T01:25:41;70.07;;;28.98;;
42104;SDS011;61464;51.472;5.712;2023-02-15T01:28:07;72.78;;;28.80;;
42104;SDS011;61464;51.472;5.712;2023-02-15T01:30:33;64.90;;;29.13;;
42104;SDS011;61464;51.472;5.712;2023-02-15T01:32:59;74.32;;;30.23;;
42104;SDS011;61464;51.472;5.712;2023-02-15T01:35:28;74.30;;;30.75;;
42104;SDS011;61464;51.472;5.712;2023-02-15T01:37:55;79.63;;;30.40;;
42104;SDS011;61464;51.472;5.712;2023-02-15T01:40:22;72.93;;;30.40;;
42104;SDS011;61464;51.472;5.712;2023-02-15T01:42:52;71.43;;;30.48;;
42104;SDS011;61464;51.472;5.712;2023-02-15T01:47:58;83.40;;;30.90;;
42104;SDS011;61464;51.472;5.712;2023-02-15T01:50:46;72.15;;;30.92;;
42104;SDS011;61464;51.472;5.712;2023-02-15T01:56:21;76.07;;;29.33;;
42104;SDS011;61464;51.472;5.712;2023-02-15T01:58:51;86.50;;;33.08;;
42104;SDS011;61464;51.472;5.712;2023-02-15T02:01:20;84.60;;;33.03;;
42104;SDS011;61464;51.472;5.712;2023-02-15T02:04:01;90.53;;;33.28;;
42104;SDS011;61464;51.472;5.712;2023-02-15T02:06:53;90.28;;;33.15;;
42104;SDS011;61464;51.472;5.712;2023-02-15T02:09:22;91.57;;;32.60;;
42104;SDS011;61464;51.472;5.712;2023-02-15T02:11:48;87.03;;;33.00;;
42104;SDS011;61464;51.472;5.712;2023-02-15T02:14:14;90.25;;;33.17;;
42104;SDS011;61464;51.472;5.712;2023-02-15T02:19:57;88.35;;;32.33;;
42104;SDS011;61464;51.472;5.712;2023-02-15T02:34:48;69.45;;;29.27;;
42104;SDS011;61464;51.472;5.712;2023-02-15T02:38:08;82.38;;;30.48;;
42104;SDS011;61464;51.472;5.712;2023-02-15T02:40:52;76.65;;;30.08;;
42104;SDS011;61464;51.472;5.712;2023-02-15T02:43:51;74.22;;;29.55;;
42104;SDS011;61464;51.472;5.712;2023-02-15T02:46:31;78.63;;;30.08;;
42104;SDS011;61464;51.472;5.712;2023-02-15T02:49:36;79.22;;;30.10;;
42104;SDS011;61464;51.472;5.712;2023-02-15T02:52:51;94.43;;;32.80;;
42104;SDS011;61464;51.472;5.712;2023-02-15T02:55:06;97.88;;;33.40;;
42104;SDS011;61464;51.472;5.712;2023-02-15T02:57:54;98.90;;;34.88;;
42104;SDS011;61464;51.472;5.712;2023-02-15T03:00:24;90.72;;;33.47;;
42104;SDS011;61464;51.472;5.712;2023-02-15T03:02:57;90.28;;;32.30;;
42104;SDS011;61464;51.472;5.712;2023-02-15T03:05:36;82.30;;;31.73;;
42104;SDS011;61464;51.472;5.712;2023-02-15T03:08:06;89.18;;;33.08;;
42104;SDS011;61464;51.472;5.712;2023-02-15T03:10:35;92.05;;;33.65;;
42104;SDS011;61464;51.472;5.712;2023-02-15T03:13:03;95.65;;;33.45;;
42104;SDS011;61464;51.472;5.712;2023-02-15T03:15:30;88.28;;;31.30;;
42104;SDS011;61464;51.472;5.712;2023-02-15T03:18:20;88.50;;;32.42;;
42104;SDS011;61464;51.472;5.712;2023-02-15T03:20:51;86.40;;;30.20;;
42104;SDS011;61464;51.472;5.712;2023-02-15T03:23:20;81.63;;;30.83;;
42104;SDS011;61464;51.472;5.712;2023-02-15T03:25:52;83.05;;;29.70;;
42104;SDS011;61464;51.472;5.712;2023-02-15T03:28:42;83.88;;;29.75;;
42104;SDS011;61464;51.472;5.712;2023-02-15T03:31:11;84.40;;;29.77;;
42104;SDS011;61464;51.472;5.712;2023-02-15T03:33:42;82.82;;;29.02;;
42104;SDS011;61464;51.472;5.712;2023-02-15T03:39:14;88.43;;;30.90;;
42104;SDS011;61464;51.472;5.712;2023-02-15T03:41:55;99.60;;;33.00;;
42104;SDS011;61464;51.472;5.712;2023-02-15T03:45:08;91.30;;;31.95;;
42104;SDS011;61464;51.472;5.712;2023-02-15T03:47:39;84.03;;;29.48;;
42104;SDS011;61464;51.472;5.712;2023-02-15T03:50:18;88.35;;;30.88;;
42104;SDS011;61464;51.472;5.712;2023-02-15T03:53:09;93.47;;;31.38;;
42104;SDS011;61464;51.472;5.712;2023-02-15T03:55:40;79.22;;;30.80;;
42104;SDS011;61464;51.472;5.712;2023-02-15T03:58:06;99.35;;;32.88;;
42104;SDS011;61464;51.472;5.712;2023-02-15T04:01:03;104.80;;;33.15;;
42104;SDS011;61464;51.472;5.712;2023-02-15T04:03:59;104.60;;;34.60;;
42104;SDS011;61464;51.472;5.712;2023-02-15T04:06:34;97.07;;;34.13;;
42104;SDS011;61464;51.472;5.712;2023-02-15T04:08:59;97.40;;;32.60;;
42104;SDS011;61464;51.472;5.712;2023-02-15T04:11:44;97.53;;;33.22;;
42104;SDS011;61464;51.472;5.712;2023-02-15T04:14:10;92.43;;;31.52;;
42104;SDS011;61464;51.472;5.712;2023-02-15T04:16:54;87.22;;;30.15;;
42104;SDS011;61464;51.472;5.712;2023-02-15T04:19:20;89.72;;;31.95;;
42104;SDS011;61464;51.472;5.712;2023-02-15T04:22:05;86.38;;;29.98;;
42104;SDS011;61464;51.472;5.712;2023-02-15T04:24:49;87.13;;;30.45;;
42104;SDS011;61464;51.472;5.712;2023-02-15T04:27:34;86.68;;;30.67;;
42104;SDS011;61464;51.472;5.712;2023-02-15T04:30:01;87.50;;;29.90;;
42104;SDS011;61464;51.472;5.712;2023-02-15T04:32:27;82.03;;;29.00;;
42104;SDS011;61464;51.472;5.712;2023-02-15T04:34:53;89.22;;;30.88;;
42104;SDS011;61464;51.472;5.712;2023-02-15T04:37:19;78.80;;;29.05;;
42104;SDS011;61464;51.472;5.712;2023-02-15T04:39:44;81.38;;;30.63;;
42104;SDS011;61464;51.472;5.712;2023-02-15T04:42:10;88.20;;;29.77;;
42104;SDS011;61464;51.472;5.712;2023-02-15T04:44:36;84.72;;;29.67;;
42104;SDS011;61464;51.472;5.712;2023-02-15T04:47:02;86.95;;;30.17;;
42104;SDS011;61464;51.472;5.712;2023-02-15T04:49:28;78.78;;;29.25;;
42104;SDS011;61464;51.472;5.712;2023-02-15T04:51:54;84.82;;;29.85;;
42104;SDS011;61464;51.472;5.712;2023-02-15T04:54:20;72.50;;;29.02;;
42104;SDS011;61464;51.472;5.712;2023-02-15T04:56:45;81.70;;;29.98;;
42104;SDS011;61464;51.472;5.712;2023-02-15T04:59:14;83.82;;;30.80;;
42104;SDS011;61464;51.472;5.712;2023-02-15T05:01:40;92.40;;;31.20;;
42104;SDS011;61464;51.472;5.712;2023-02-15T05:04:06;94.07;;;31.15;;
42104;SDS011;61464;51.472;5.712;2023-02-15T05:06:32;86.03;;;31.13;;
42104;SDS011;61464;51.472;5.712;2023-02-15T05:08:58;81.90;;;29.90;;
42104;SDS011;61464;51.472;5.712;2023-02-15T05:11:25;80.13;;;28.42;;
42104;SDS011;61464;51.472;5.712;2023-02-15T05:13:51;89.72;;;31.00;;
42104;SDS011;61464;51.472;5.712;2023-02-15T05:16:17;90.03;;;31.15;;
42104;SDS011;61464;51.472;5.712;2023-02-15T05:18:43;89.65;;;32.45;;
42104;SDS011;61464;51.472;5.712;2023-02-15T05:21:09;92.47;;;32.50;;
42104;SDS011;61464;51.472;5.712;2023-02-15T05:23:35;101.50;;;33.53;;
42104;SDS011;61464;51.472;5.712;2023-02-15T05:26:01;95.20;;;32.72;;
42104;SDS011;61464;51.472;5.712;2023-02-15T05:28:46;103.63;;;32.47;;
42104;SDS011;61464;51.472;5.712;2023-02-15T05:31:13;95.20;;;32.80;;
42104;SDS011;61464;51.472;5.712;2023-02-15T05:33:44;104.55;;;32.60;;
42104;SDS011;61464;51.472;5.712;2023-02-15T05:36:11;112.80;;;34.45;;
42104;SDS011;61464;51.472;5.712;2023-02-15T05:38:38;105.15;;;34.03;;
42104;SDS011;61464;51.472;5.712;2023-02-15T05:41:05;109.68;;;31.55;;
42104;SDS011;61464;51.472;5.712;2023-02-15T05:43:33;116.20;;;33.40;;
42104;SDS011;61464;51.472;5.712;2023-02-15T05:45:59;95.65;;;33.70;;
42104;SDS011;61464;51.472;5.712;2023-02-15T05:48:26;120.30;;;36.08;;
42104;SDS011;61464;51.472;5.712;2023-02-15T05:50:59;133.05;;;37.28;;
42104;SDS011;61464;51.472;5.712;2023-02-15T05:53:27;106.90;;;34.30;;
42104;SDS011;61464;51.472;5.712;2023-02-15T05:55:54;120.65;;;36.88;;
42104;SDS011;61464;51.472;5.712;2023-02-15T05:58:24;107.22;;;35.15;;
42104;SDS011;61464;51.472;5.712;2023-02-15T06:00:56;116.45;;;35.97;;
42104;SDS011;61464;51.472;5.712;2023-02-15T06:03:22;106.95;;;34.92;;
42104;SDS011;61464;51.472;5.712;2023-02-15T06:05:53;101.53;;;34.13;;
42104;SDS011;61464;51.472;5.712;2023-02-15T06:08:19;102.60;;;33.90;;
42104;SDS011;61464;51.472;5.712;2023-02-15T06:10:46;107.50;;;34.55;;
42104;SDS011;61464;51.472;5.712;2023-02-15T06:13:12;108.10;;;33.72;;
42104;SDS011;61464;51.472;5.712;2023-02-15T06:15:40;110.05;;;32.42;;
42104;SDS011;61464;51.472;5.712;2023-02-15T06:18:12;98.55;;;33.35;;
42104;SDS011;61464;51.472;5.712;2023-02-15T06:20:38;103.82;;;33.92;;
42104;SDS011;61464;51.472;5.712;2023-02-15T06:23:04;109.05;;;33.90;;
42104;SDS011;61464;51.472;5.712;2023-02-15T06:25:30;101.40;;;34.13;;
42104;SDS011;61464;51.472;5.712;2023-02-15T06:27:56;109.32;;;33.53;;
42104;SDS011;61464;51.472;5.712;2023-02-15T06:30:21;106.95;;;35.30;;
42104;SDS011;61464;51.472;5.712;2023-02-15T06:32:47;97.22;;;32.40;;
42104;SDS011;61464;51.472;5.712;2023-02-15T06:35:16;98.45;;;33.92;;
42104;SDS011;61464;51.472;5.712;2023-02-15T06:37:41;93.95;;;31.88;;
42104;SDS011;61464;51.472;5.712;2023-02-15T06:40:10;97.32;;;32.00;;
42104;SDS011;61464;51.472;5.712;2023-02-15T06:42:36;96.18;;;32.60;;
42104;SDS011;61464;51.472;5.712;2023-02-15T06:45:02;90.18;;;32.05;;
42104;SDS011;61464;51.472;5.712;2023-02-15T06:47:29;89.47;;;31.70;;
42104;SDS011;61464;51.472;5.712;2023-02-15T06:49:55;84.75;;;31.63;;
42104;SDS011;61464;51.472;5.712;2023-02-15T06:52:21;97.80;;;32.85;;
42104;SDS011;61464;51.472;5.712;2023-02-15T06:54:47;94.68;;;32.15;;
42104;SDS011;61464;51.472;5.712;2023-02-15T06:57:12;79.60;;;30.27;;
42104;SDS011;61464;51.472;5.712;2023-02-15T06:59:38;93.32;;;33.25;;
42104;SDS011;61464;51.472;5.712;2023-02-15T07:02:04;103.63;;;32.47;;
42104;SDS011;61464;51.472;5.712;2023-02-15T07:04:31;93.75;;;32.65;;
42104;SDS011;61464;51.472;5.712;2023-02-15T07:06:56;94.88;;;34.58;;
42104;SDS011;61464;51.472;5.712;2023-02-15T07:09:22;107.97;;;36.22;;
42104;SDS011;61464;51.472;5.712;2023-02-15T07:11:48;104.63;;;34.10;;
42104;SDS011;61464;51.472;5.712;2023-02-15T07:14:35;100.60;;;34.85;;
42104;SDS011;61464;51.472;5.712;2023-02-15T07:17:01;113.60;;;35.65;;
42104;SDS011;61464;51.472;5.712;2023-02-15T07:19:27;106.95;;;34.92;;
42104;SDS011;61464;51.472;5.712;2023-02-15T07:21:56;91.65;;;35.20;;
42104;SDS011;61464;51.472;5.712;2023-02-15T07:24:22;105.63;;;36.85;;
42104;SDS011;61464;51.472;5.712;2023-02-15T07:26:48;115.57;;;36.88;;
42104;SDS011;61464;51.472;5.712;2023-02-15T07:29:14;114.18;;;37.55;;
42104;SDS011;61464;51.472;5.712;2023-02-15T07:31:41;116.90;;;37.38;;
42104;SDS011;61464;51.472;5.712;2023-02-15T07:34:10;116.55;;;37.35;;
42104;SDS011;61464;51.472;5.712;2023-02-15T07:36:36;116.15;;;39.55;;
42104;SDS011;61464;51.472;5.712;2023-02-15T07:39:02;129.35;;;39.92;;
42104;SDS011;61464;51.472;5.712;2023-02-15T07:41:28;128.55;;;40.75;;
42104;SDS011;61464;51.472;5.712;2023-02-15T07:43:54;119.20;;;39.42;;
42104;SDS011;61464;51.472;5.712;2023-02-15T07:46:20;119.95;;;40.58;;
42104;SDS011;61464;51.472;5.712;2023-02-15T07:48:46;116.30;;;40.15;;
42104;SDS011;61464;51.472;5.712;2023-02-15T07:51:13;126.63;;;39.15;;
42104;SDS011;61464;51.472;5.712;2023-02-15T07:53:40;119.15;;;40.42;;
42104;SDS011;61464;51.472;5.712;2023-02-15T07:56:08;125.18;;;41.63;;
42104;SDS011;61464;51.472;5.712;2023-02-15T07:58:36;126.15;;;41.35;;
42104;SDS011;61464;51.472;5.712;2023-02-15T08:03:48;129.30;;;42.90;;
42104;SDS011;61464;51.472;5.712;2023-02-15T08:06:24;134.05;;;43.95;;
42104;SDS011;61464;51.472;5.712;2023-02-15T08:08:53;122.70;;;42.10;;
42104;SDS011;61464;51.472;5.712;2023-02-15T08:11:20;125.68;;;43.08;;
42104;SDS011;61464;51.472;5.712;2023-02-15T08:16:52;123.80;;;42.88;;
42104;SDS011;61464;51.472;5.712;2023-02-15T08:19:28;122.70;;;43.15;;
42104;SDS011;61464;51.472;5.712;2023-02-15T08:21:59;114.53;;;43.40;;
42104;SDS011;61464;51.472;5.712;2023-02-15T08:24:34;127.32;;;44.00;;
42104;SDS011;61464;51.472;5.712;2023-02-15T08:27:02;114.68;;;42.53;;
42104;SDS011;61464;51.472;5.712;2023-02-15T08:29:30;104.13;;;40.55;;
42104;SDS011;61464;51.472;5.712;2023-02-15T08:31:59;106.90;;;41.47;;
42104;SDS011;61464;51.472;5.712;2023-02-15T08:34:32;94.63;;;39.10;;
42104;SDS011;61464;51.472;5.712;2023-02-15T08:37:02;93.50;;;38.15;;
42104;SDS011;61464;51.472;5.712;2023-02-15T08:39:28;89.30;;;38.45;;
42104;SDS011;61464;51.472;5.712;2023-02-15T08:41:54;76.70;;;36.65;;
42104;SDS011;61464;51.472;5.712;2023-02-15T08:44:20;84.60;;;36.72;;
42104;SDS011;61464;51.472;5.712;2023-02-15T08:46:47;80.80;;;36.40;;
42104;SDS011;61464;51.472;5.712;2023-02-15T08:49:18;73.35;;;34.00;;
42104;SDS011;61464;51.472;5.712;2023-02-15T08:51:46;74.88;;;34.78;;
42104;SDS011;61464;51.472;5.712;2023-02-15T08:54:14;74.32;;;33.35;;
42104;SDS011;61464;51.472;5.712;2023-02-15T08:56:43;70.65;;;31.60;;
42104;SDS011;61464;51.472;5.712;2023-02-15T08:59:16;66.55;;;31.38;;
42104;SDS011;61464;51.472;5.712;2023-02-15T09:01:45;63.47;;;30.77;;
42104;SDS011;61464;51.472;5.712;2023-02-15T09:04:13;69.28;;;30.80;;
42104;SDS011;61464;51.472;5.712;2023-02-15T09:06:40;66.20;;;31.27;;
42104;SDS011;61464;51.472;5.712;2023-02-15T09:09:09;60.28;;;29.60;;
42104;SDS011;61464;51.472;5.712;2023-02-15T09:11:37;59.58;;;30.17;;
42104;SDS011;61464;51.472;5.712;2023-02-15T09:14:09;63.63;;;29.80;;
42104;SDS011;61464;51.472;5.712;2023-02-15T09:16:42;60.88;;;29.40;;
42104;SDS011;61464;51.472;5.712;2023-02-15T09:19:14;59.70;;;29.40;;
42104;SDS011;61464;51.472;5.712;2023-02-15T09:21:42;61.25;;;29.60;;
42104;SDS011;61464;51.472;5.712;2023-02-15T09:24:09;57.45;;;29.38;;
42104;SDS011;61464;51.472;5.712;2023-02-15T09:26:40;62.65;;;30.20;;
42104;SDS011;61464;51.472;5.712;2023-02-15T09:29:08;58.10;;;30.40;;
42104;SDS011;61464;51.472;5.712;2023-02-15T09:31:39;59.00;;;29.33;;
42104;SDS011;61464;51.472;5.712;2023-02-15T09:34:14;53.03;;;27.17;;
42104;SDS011;61464;51.472;5.712;2023-02-15T09:36:42;56.40;;;28.50;;
42104;SDS011;61464;51.472;5.712;2023-02-15T09:47:33;52.10;;;26.77;;
42104;SDS011;61464;51.472;5.712;2023-02-15T09:50:54;53.85;;;27.40;;
42104;SDS011;61464;51.472;5.712;2023-02-15T10:05:07;50.63;;;24.20;;
42104;SDS011;61464;51.472;5.712;2023-02-15T10:32:45;46.33;;;22.50;;
42104;SDS011;61464;51.472;5.712;2023-02-15T10:34:58;43.50;;;23.30;;
42104;SDS011;61464;51.472;5.712;2023-02-15T10:43:36;42.95;;;23.90;;
42104;SDS011;61464;51.472;5.712;2023-02-15T10:49:16;46.58;;;23.35;;
42104;SDS011;61464;51.472;5.712;2023-02-15T10:55:45;44.53;;;23.92;;
42104;SDS011;61464;51.472;5.712;2023-02-15T11:09:09;45.05;;;22.77;;
42104;SDS011;61464;51.472;5.712;2023-02-15T11:12:23;42.00;;;22.38;;
42104;SDS011;61464;51.472;5.712;2023-02-15T11:15:36;45.45;;;23.05;;
42104;SDS011;61464;51.472;5.712;2023-02-15T11:18:51;42.45;;;21.88;;
42104;SDS011;61464;51.472;5.712;2023-02-15T11:22:04;37.53;;;21.92;;
42104;SDS011;61464;51.472;5.712;2023-02-15T11:31:43;42.50;;;22.80;;
42104;SDS011;61464;51.472;5.712;2023-02-15T11:42:40;45.25;;;22.50;;
42104;SDS011;61464;51.472;5.712;2023-02-15T11:50:01;45.92;;;21.40;;
42104;SDS011;61464;51.472;5.712;2023-02-15T12:18:56;39.53;;;21.38;;
42104;SDS011;61464;51.472;5.712;2023-02-15T12:33:54;37.65;;;19.60;;
42104;SDS011;61464;51.472;5.712;2023-02-15T12:45:25;37.72;;;20.08;;
42104;SDS011;61464;51.472;5.712;2023-02-15T12:49:19;39.17;;;19.58;;
42104;SDS011;61464;51.472;5.712;2023-02-15T12:56:39;36.40;;;19.38;;
42104;SDS011;61464;51.472;5.712;2023-02-15T13:04:15;37.28;;;19.27;;
42104;SDS011;61464;51.472;5.712;2023-02-15T13:07:58;38.08;;;19.63;;
42104;SDS011;61464;51.472;5.712;2023-02-15T13:23:30;36.67;;;19.30;;
42104;SDS011;61464;51.472;5.712;2023-02-15T13:35:03;33.13;;;17.42;;
42104;SDS011;61464;51.472;5.712;2023-02-15T14:11:27;37.70;;;16.98;;
42104;SDS011;61464;51.472;5.712;2023-02-15T14:30:10;36.95;;;16.10;;
42104;SDS011;61464;51.472;5.712;2023-02-15T14:33:31;32.80;;;16.90;;
42104;SDS011;61464;51.472;5.712;2023-02-15T14:36:51;36.25;;;16.65;;
42104;SDS011;61464;51.472;5.712;2023-02-15T14:47:14;41.78;;;18.00;;
42104;SDS011;61464;51.472;5.712;2023-02-15T14:50:57;36.47;;;18.08;;
42104;SDS011;61464;51.472;5.712;2023-02-15T15:19:11;36.80;;;17.65;;
42104;SDS011;61464;51.472;5.712;2023-02-15T15:26:41;34.67;;;16.58;;
42104;SDS011;61464;51.472;5.712;2023-02-15T15:48:39;37.00;;;18.70;;
42104;SDS011;61464;51.472;5.712;2023-02-15T15:56:05;36.15;;;18.88;;
42104;SDS011;61464;51.472;5.712;2023-02-15T16:07:36;37.05;;;19.33;;
42104;SDS011;61464;51.472;5.712;2023-02-15T16:11:22;40.67;;;20.20;;
42104;SDS011;61464;51.472;5.712;2023-02-15T16:37:24;39.78;;;19.58;;
42104;SDS011;61464;51.472;5.712;2023-02-15T16:40:54;40.13;;;19.50;;
42104;SDS011;61464;51.472;5.712;2023-02-15T16:43:58;36.20;;;18.65;;
42104;SDS011;61464;51.472;5.712;2023-02-15T16:47:01;40.55;;;20.45;;
42104;SDS011;61464;51.472;5.712;2023-02-15T16:49:50;40.28;;;20.67;;
42104;SDS011;61464;51.472;5.712;2023-02-15T16:52:25;38.42;;;20.33;;
42104;SDS011;61464;51.472;5.712;2023-02-15T16:55:23;40.30;;;19.05;;
42104;SDS011;61464;51.472;5.712;2023-02-15T16:58:07;42.25;;;21.08;;
42104;SDS011;61464;51.472;5.712;2023-02-15T17:01:30;42.22;;;21.40;;
42104;SDS011;61464;51.472;5.712;2023-02-15T17:04:26;40.22;;;20.63;;
42104;SDS011;61464;51.472;5.712;2023-02-15T17:07:19;40.08;;;19.52;;
42104;SDS011;61464;51.472;5.712;2023-02-15T17:09:50;43.88;;;21.35;;
42104;SDS011;61464;51.472;5.712;2023-02-15T17:15:37;43.25;;;21.73;;
42104;SDS011;61464;51.472;5.712;2023-02-15T17:18:23;44.80;;;22.25;;
42104;SDS011;61464;51.472;5.712;2023-02-15T17:20:53;41.53;;;21.58;;
42104;SDS011;61464;51.472;5.712;2023-02-15T17:23:42;40.35;;;21.00;;
42104;SDS011;61464;51.472;5.712;2023-02-15T17:26:45;42.72;;;22.00;;
42104;SDS011;61464;51.472;5.712;2023-02-15T17:30:01;45.03;;;21.60;;
42104;SDS011;61464;51.472;5.712;2023-02-15T17:32:51;48.20;;;22.33;;
42104;SDS011;61464;51.472;5.712;2023-02-15T17:35:25;41.95;;;21.63;;
42104;SDS011;61464;51.472;5.712;2023-02-15T17:41:15;43.85;;;21.30;;
42104;SDS011;61464;51.472;5.712;2023-02-15T17:47:38;42.08;;;21.23;;
42104;SDS011;61464;51.472;5.712;2023-02-15T17:50:16;43.83;;;22.50;;
42104;SDS011;61464;51.472;5.712;2023-02-15T17:53:01;40.03;;;21.73;;
42104;SDS011;61464;51.472;5.712;2023-02-15T17:55:47;43.63;;;22.30;;
42104;SDS011;61464;51.472;5.712;2023-02-15T17:58:21;48.40;;;23.63;;
42104;SDS011;61464;51.472;5.712;2023-02-15T18:01:14;47.03;;;22.83;;
42104;SDS011;61464;51.472;5.712;2023-02-15T18:04:39;43.45;;;22.65;;
42104;SDS011;61464;51.472;5.712;2023-02-15T18:07:26;46.13;;;23.40;;
42104;SDS011;61464;51.472;5.712;2023-02-15T18:10:47;49.88;;;23.98;;
42104;SDS011;61464;51.472;5.712;2023-02-15T18:14:26;45.22;;;24.10;;
42104;SDS011;61464;51.472;5.712;2023-02-15T18:16:53;46.35;;;23.90;;
42104;SDS011;61464;51.472;5.712;2023-02-15T18:20:06;46.15;;;24.17;;
42104;SDS011;61464;51.472;5.712;2023-02-15T18:23:45;50.08;;;24.55;;
42104;SDS011;61464;51.472;5.712;2023-02-15T18:26:44;51.30;;;24.47;;
42104;SDS011;61464;51.472;5.712;2023-02-15T18:29:37;51.15;;;26.15;;
42104;SDS011;61464;51.472;5.712;2023-02-15T18:32:27;47.90;;;26.55;;
42104;SDS011;61464;51.472;5.712;2023-02-15T18:39:38;49.45;;;26.42;;
42104;SDS011;61464;51.472;5.712;2023-02-15T18:43:07;52.55;;;25.77;;
42104;SDS011;61464;51.472;5.712;2023-02-15T18:47:14;57.83;;;27.48;;
42104;SDS011;61464;51.472;5.712;2023-02-15T18:50:59;54.97;;;27.02;;
42104;SDS011;61464;51.472;5.712;2023-02-15T18:54:10;55.13;;;29.10;;
42104;SDS011;61464;51.472;5.712;2023-02-15T19:00:54;52.78;;;27.10;;
42104;SDS011;61464;51.472;5.712;2023-02-15T19:04:54;56.67;;;29.23;;
42104;SDS011;61464;51.472;5.712;2023-02-15T19:08:17;57.55;;;29.60;;
42104;SDS011;61464;51.472;5.712;2023-02-15T19:11:19;52.10;;;27.73;;
42104;SDS011;61464;51.472;5.712;2023-02-15T19:17:52;58.80;;;29.33;;
42104;SDS011;61464;51.472;5.712;2023-02-15T19:20:47;63.40;;;31.33;;
42104;SDS011;61464;51.472;5.712;2023-02-15T19:23:20;54.83;;;29.20;;
42104;SDS011;61464;51.472;5.712;2023-02-15T19:25:48;61.63;;;30.65;;
42104;SDS011;61464;51.472;5.712;2023-02-15T19:31:02;60.90;;;31.23;;
42104;SDS011;61464;51.472;5.712;2023-02-15T19:33:41;55.30;;;28.95;;
42104;SDS011;61464;51.472;5.712;2023-02-15T19:36:13;57.90;;;29.83;;
42104;SDS011;61464;51.472;5.712;2023-02-15T19:38:45;57.97;;;30.85;;
42104;SDS011;61464;51.472;5.712;2023-02-15T19:41:28;66.05;;;30.90;;
42104;SDS011;61464;51.472;5.712;2023-02-15T19:43:58;57.42;;;30.67;;
42104;SDS011;61464;51.472;5.712;2023-02-15T19:46:24;65.65;;;31.23;;
42104;SDS011;61464;51.472;5.712;2023-02-15T19:48:51;57.65;;;30.08;;
42104;SDS011;61464;51.472;5.712;2023-02-15T19:51:38;57.88;;;30.20;;
42104;SDS011;61464;51.472;5.712;2023-02-15T19:54:09;60.22;;;30.80;;
42104;SDS011;61464;51.472;5.712;2023-02-15T19:56:53;56.17;;;30.13;;
42104;SDS011;61464;51.472;5.712;2023-02-15T19:59:20;61.45;;;30.65;;
42104;SDS011;61464;51.472;5.712;2023-02-15T20:01:52;56.45;;;30.10;;
42104;SDS011;61464;51.472;5.712;2023-02-15T20:04:19;56.67;;;29.67;;
42104;SDS011;61464;51.472;5.712;2023-02-15T20:06:45;55.28;;;29.90;;
42104;SDS011;61464;51.472;5.712;2023-02-15T20:09:20;66.78;;;30.73;;
42104;SDS011;61464;51.472;5.712;2023-02-15T20:11:54;62.25;;;30.60;;
42104;SDS011;61464;51.472;5.712;2023-02-15T20:14:21;62.80;;;30.40;;
42104;SDS011;61464;51.472;5.712;2023-02-15T20:16:48;54.97;;;29.52;;
42104;SDS011;61464;51.472;5.712;2023-02-15T20:19:15;54.90;;;29.77;;
42104;SDS011;61464;51.472;5.712;2023-02-15T20:21:43;62.03;;;31.00;;
42104;SDS011;61464;51.472;5.712;2023-02-15T20:24:16;58.30;;;31.67;;
42104;SDS011;61464;51.472;5.712;2023-02-15T20:26:44;60.30;;;30.83;;
42104;SDS011;61464;51.472;5.712;2023-02-15T20:29:14;61.15;;;30.35;;
42104;SDS011;61464;51.472;5.712;2023-02-15T20:31:42;58.60;;;29.77;;
42104;SDS011;61464;51.472;5.712;2023-02-15T20:34:09;70.10;;;32.03;;
42104;SDS011;61464;51.472;5.712;2023-02-15T20:36:36;60.90;;;31.67;;
42104;SDS011;61464;51.472;5.712;2023-02-15T20:39:21;60.13;;;31.42;;
42104;SDS011;61464;51.472;5.712;2023-02-15T20:41:47;62.92;;;31.73;;
42104;SDS011;61464;51.472;5.712;2023-02-15T20:44:17;68.60;;;33.10;;
42104;SDS011;61464;51.472;5.712;2023-02-15T20:46:55;60.60;;;31.17;;
42104;SDS011;61464;51.472;5.712;2023-02-15T20:49:24;63.90;;;32.75;;
42104;SDS011;61464;51.472;5.712;2023-02-15T20:51:52;62.70;;;32.80;;
42104;SDS011;61464;51.472;5.712;2023-02-15T20:54:23;67.72;;;32.22;;
42104;SDS011;61464;51.472;5.712;2023-02-15T20:56:56;70.65;;;33.80;;
42104;SDS011;61464;51.472;5.712;2023-02-15T20:59:24;69.32;;;34.00;;
42104;SDS011;61464;51.472;5.712;2023-02-15T21:01:57;68.68;;;34.65;;
42104;SDS011;61464;51.472;5.712;2023-02-15T21:04:35;63.20;;;33.83;;
42104;SDS011;61464;51.472;5.712;2023-02-15T21:07:01;65.88;;;33.30;;
42104;SDS011;61464;51.472;5.712;2023-02-15T21:09:30;64.32;;;32.90;;
42104;SDS011;61464;51.472;5.712;2023-02-15T21:11:59;66.22;;;34.28;;
42104;SDS011;61464;51.472;5.712;2023-02-15T21:14:36;65.68;;;34.15;;
42104;SDS011;61464;51.472;5.712;2023-02-15T21:17:02;67.95;;;33.35;;
42104;SDS011;61464;51.472;5.712;2023-02-15T21:19:28;62.53;;;32.53;;
42104;SDS011;61464;51.472;5.712;2023-02-15T21:21:57;60.72;;;31.75;;